createdAt,value
2023-04-06T00:00:46.188Z,71.61
2023-04-06T00:03:14.436Z,71.55
2023-04-06T00:05:42.809Z,72.34
2023-04-06T00:08:13.074Z,72.27
2023-04-06T00:10:41.692Z,72.80
2023-04-06T00:13:09.986Z,72.14
2023-04-06T00:15:38.278Z,72.40
2023-04-06T00:18:06.875Z,71.49
2023-04-06T00:20:35.165Z,72.66
2023-04-06T00:23:03.446Z,72.13
2023-04-06T00:25:33.416Z,72.60
2023-04-06T00:28:01.935Z,72.68
2023-04-06T00:30:30.500Z,72.23
2023-04-06T00:32:58.868Z,72.34
2023-04-06T00:35:27.501Z,72.08
2023-04-06T00:37:55.977Z,72.89
2023-04-06T00:40:24.248Z,73.81
2023-04-06T00:42:54.077Z,73.14
2023-04-06T00:45:22.493Z,72.10
2023-04-06T00:47:50.926Z,73.75
2023-04-06T00:50:19.627Z,74.89
2023-04-06T00:52:47.797Z,74.25
2023-04-06T00:55:16.140Z,73.72
2023-04-06T00:57:45.211Z,73.66
2023-04-06T01:00:17.294Z,74.71
2023-04-06T01:02:47.849Z,74.66
2023-04-06T01:05:19.818Z,73.58
2023-04-06T01:07:52.767Z,73.51
2023-04-06T01:10:26.115Z,73.17
2023-04-06T01:12:59.225Z,74.11
2023-04-06T01:15:46.156Z,73.83
2023-04-06T01:18:18.598Z,74.25
2023-04-06T01:20:57.414Z,74.38
2023-04-06T01:23:29.464Z,75.42
2023-04-06T01:25:57.910Z,74.96
2023-04-06T01:28:26.695Z,74.42
2023-04-06T01:31:06.046Z,75.49
2023-04-06T01:33:46.505Z,75.40
2023-04-06T01:36:18.728Z,75.82
2023-04-06T01:38:53.714Z,76.17
2023-04-06T01:41:26.506Z,76.06
2023-04-06T01:43:56.019Z,76.25
2023-04-06T01:46:28.726Z,76.49
2023-04-06T01:48:57.392Z,76.68
2023-04-06T01:51:43.638Z,77.00
2023-04-06T01:54:16.117Z,77.48
2023-04-06T01:56:55.383Z,77.13
2023-04-06T01:59:45.654Z,78.39
2023-04-06T02:02:28.097Z,79.25
2023-04-06T02:05:07.657Z,78.73
2023-04-06T02:07:36.224Z,77.80
2023-04-06T02:10:06.931Z,78.71
2023-04-06T02:12:39.300Z,78.17
2023-04-06T02:15:11.752Z,77.84
2023-04-06T02:17:40.014Z,78.83
2023-04-06T02:20:09.247Z,79.46
2023-04-06T02:22:37.598Z,79.48
2023-04-06T02:25:07.956Z,79.03
2023-04-06T02:27:36.592Z,79.45
2023-04-06T02:30:05.050Z,79.56
2023-04-06T02:32:33.550Z,78.92
2023-04-06T02:35:02.437Z,78.28
2023-04-06T02:37:32.095Z,78.82
2023-04-06T02:40:01.097Z,79.74
2023-04-06T02:42:33.426Z,79.12
2023-04-06T02:45:02.125Z,78.34
2023-04-06T02:47:35.712Z,79.29
2023-04-06T02:50:04.139Z,78.23
2023-04-06T02:52:34.410Z,78.79
2023-04-06T02:55:02.997Z,79.39
2023-04-06T02:57:34.150Z,78.81
2023-04-06T03:00:02.548Z,78.63
2023-04-06T03:02:38.888Z,78.83
2023-04-06T03:05:11.426Z,79.83
2023-04-06T03:07:43.591Z,79.42
2023-04-06T03:10:19.164Z,79.32
2023-04-06T03:12:50.828Z,79.77
2023-04-06T03:15:23.789Z,80.57
2023-04-06T03:18:00.123Z,80.06
2023-04-06T03:20:39.938Z,80.81
2023-04-06T03:23:08.446Z,80.19
2023-04-06T03:25:41.721Z,80.56
2023-04-06T03:28:14.305Z,80.26
2023-04-06T03:30:51.273Z,80.90
2023-04-06T03:33:28.107Z,80.77
2023-04-06T03:35:57.394Z,82.10
2023-04-06T03:38:27.851Z,81.40
2023-04-06T03:40:56.961Z,82.16
2023-04-06T03:43:29.867Z,82.37
2023-04-06T03:45:58.406Z,82.54
2023-04-06T03:48:26.815Z,83.07
2023-04-06T03:50:55.062Z,83.87
2023-04-06T03:53:23.559Z,82.99
2023-04-06T03:55:55.630Z,82.77
2023-04-06T03:58:24.216Z,84.01
2023-04-06T04:00:55.891Z,83.37
2023-04-06T04:03:24.740Z,82.51
2023-04-06T04:05:53.228Z,83.56
2023-04-06T04:08:21.777Z,83.93
2023-04-06T04:10:50.025Z,83.69
2023-04-06T04:13:18.362Z,84.54
2023-04-06T04:15:49.683Z,83.42
2023-04-06T04:18:19.380Z,84.80
2023-04-06T04:20:48.603Z,84.68
2023-04-06T04:23:17.220Z,83.92
2023-04-06T04:25:46.001Z,83.93
2023-04-06T04:28:14.771Z,84.49
2023-04-06T04:30:44.148Z,84.45
2023-04-06T04:33:13.852Z,84.25
2023-04-06T04:35:45.080Z,84.46
2023-04-06T04:38:17.568Z,85.09
2023-04-06T04:40:50.587Z,84.66
2023-04-06T04:43:22.284Z,84.52
2023-04-06T04:45:50.645Z,85.10
2023-04-06T04:48:38.431Z,84.87
2023-04-06T04:51:10.180Z,85.06
2023-04-06T04:54:05.116Z,84.74
2023-04-06T04:56:34.814Z,84.78
2023-04-06T04:59:16.448Z,84.88
2023-04-06T05:01:55.309Z,85.18
2023-04-06T05:04:30.483Z,84.38
2023-04-06T05:07:08.330Z,85.29
2023-04-06T05:09:38.494Z,84.20
2023-04-06T05:12:07.628Z,83.25
2023-04-06T05:14:41.969Z,84.03
2023-04-06T05:17:16.098Z,84.45
2023-04-06T05:19:44.444Z,84.37
2023-04-06T05:22:18.625Z,83.22
2023-04-06T05:24:51.563Z,83.44
2023-04-06T05:27:19.995Z,83.83
2023-04-06T05:29:49.178Z,82.68
2023-04-06T05:32:18.273Z,81.94
2023-04-06T05:34:47.101Z,81.70
2023-04-06T05:37:16.980Z,81.16
2023-04-06T05:39:45.307Z,80.64
2023-04-06T05:42:13.537Z,79.93
2023-04-06T05:44:53.420Z,78.31
2023-04-06T05:47:22.630Z,77.11
2023-04-06T05:49:57.571Z,75.67
2023-04-06T05:52:35.884Z,75.75
2023-04-06T05:55:04.880Z,75.19
2023-04-06T05:57:34.179Z,73.95
2023-04-06T06:00:03.220Z,73.43
2023-04-06T06:02:41.167Z,72.82
2023-04-06T06:05:12.933Z,72.93
2023-04-06T06:07:44.841Z,70.45
2023-04-06T06:10:13.574Z,69.37
2023-04-06T06:12:41.964Z,67.45
2023-04-06T06:15:10.846Z,66.88
2023-04-06T06:17:44.370Z,67.00
2023-04-06T06:20:13.927Z,66.13
2023-04-06T06:22:42.349Z,64.51
2023-04-06T06:25:17.131Z,64.39
2023-04-06T06:27:47.869Z,62.93
2023-04-06T06:30:20.461Z,63.35
2023-04-06T06:32:52.439Z,61.25
2023-04-06T06:35:21.466Z,60.84
2023-04-06T06:37:50.513Z,60.41
2023-04-06T06:40:25.277Z,60.03
2023-04-06T06:42:55.311Z,59.84
2023-04-06T06:45:31.735Z,60.57
2023-04-06T06:48:00.276Z,61.25
2023-04-06T06:50:29.327Z,57.97
2023-04-06T06:52:57.625Z,56.28
2023-04-06T06:55:27.826Z,56.15
2023-04-06T06:57:56.483Z,57.68
2023-04-06T07:00:25.212Z,56.27
2023-04-06T07:02:54.924Z,53.99
2023-04-06T07:05:27.437Z,53.55
2023-04-06T07:07:58.892Z,53.36
2023-04-06T07:10:29.291Z,51.72
2023-04-06T07:12:57.682Z,49.90
2023-04-06T07:15:25.980Z,49.88
2023-04-06T07:17:55.755Z,50.09
2023-04-06T07:20:24.947Z,49.20
2023-04-06T07:22:53.275Z,48.47
2023-04-06T07:25:24.341Z,44.10
2023-04-06T07:27:55.390Z,42.87
2023-04-06T07:30:26.353Z,42.49
2023-04-06T07:32:56.625Z,37.79
2023-04-06T07:35:27.339Z,35.20
2023-04-06T07:37:56.772Z,35.30
2023-04-06T07:40:27.399Z,34.13
2023-04-06T07:42:58.492Z,32.91
2023-04-06T07:45:27.658Z,31.25
2023-04-06T07:47:56.883Z,29.64
2023-04-06T07:50:27.241Z,29.54
2023-04-06T07:52:56.483Z,28.48
2023-04-06T07:55:25.042Z,28.31
2023-04-06T07:57:53.505Z,27.62
2023-04-06T08:00:24.179Z,26.90
2023-04-06T08:02:52.727Z,25.50
2023-04-06T08:05:21.878Z,26.94
2023-04-06T08:07:50.753Z,27.17
2023-04-06T08:10:19.611Z,26.22
2023-04-06T08:12:48.652Z,26.88
2023-04-06T08:15:19.285Z,25.12
2023-04-06T08:17:49.083Z,25.88
2023-04-06T08:20:17.483Z,26.51
2023-04-06T08:22:46.123Z,25.40
2023-04-06T08:25:14.490Z,25.34
2023-04-06T08:27:42.970Z,23.27
2023-04-06T08:30:16.475Z,21.89
2023-04-06T08:32:45.172Z,21.45
2023-04-06T08:35:14.899Z,22.54
2023-04-06T08:37:43.325Z,20.99
2023-04-06T08:40:13.182Z,20.49
2023-04-06T08:42:43.347Z,21.26
2023-04-06T08:45:12.615Z,21.20
2023-04-06T08:47:42.020Z,22.76
2023-04-06T08:50:12.370Z,22.24
2023-04-06T08:52:44.712Z,21.90
2023-04-06T08:55:13.025Z,22.58
2023-04-06T08:57:42.415Z,22.30
2023-04-06T09:00:13.225Z,21.07
2023-04-06T09:02:42.505Z,21.16
2023-04-06T09:05:11.860Z,21.91
2023-04-06T09:07:42.023Z,22.82
2023-04-06T09:10:11.142Z,22.57
2023-04-06T09:12:39.492Z,22.68
2023-04-06T09:15:08.961Z,22.56
2023-04-06T09:17:37.903Z,21.66
2023-04-06T09:20:07.032Z,20.30
2023-04-06T09:22:39.217Z,21.02
2023-04-06T09:25:10.986Z,21.25
2023-04-06T09:27:40.072Z,21.32
2023-04-06T09:30:11.243Z,20.77
2023-04-06T09:32:51.038Z,20.79
2023-04-06T09:35:21.219Z,21.23
2023-04-06T09:37:50.160Z,20.43
2023-04-06T09:40:20.543Z,19.16
2023-04-06T09:42:51.233Z,20.27
2023-04-06T09:45:19.755Z,19.79
2023-04-06T09:47:48.554Z,20.79
2023-04-06T09:50:17.511Z,20.60
2023-04-06T09:52:50.653Z,20.36
2023-04-06T09:55:26.507Z,20.47
2023-04-06T09:58:00.482Z,21.35
2023-04-06T10:00:30.775Z,22.09
2023-04-06T10:03:10.043Z,20.78
2023-04-06T10:05:44.558Z,20.39
2023-04-06T10:08:14.203Z,20.63
2023-04-06T10:10:44.955Z,21.13
2023-04-06T10:13:14.163Z,20.97
2023-04-06T10:15:43.239Z,21.39
2023-04-06T10:18:11.574Z,21.36
2023-04-06T10:20:44.460Z,21.91
2023-04-06T10:23:17.161Z,20.83
2023-04-06T10:25:56.696Z,20.31
2023-04-06T10:28:26.013Z,21.33
2023-04-06T10:31:00.626Z,22.03
2023-04-06T10:33:29.257Z,21.73
2023-04-06T10:35:57.843Z,21.41
2023-04-06T10:38:39.696Z,20.92
2023-04-06T10:41:12.503Z,19.36
2023-04-06T10:43:42.555Z,19.14
2023-04-06T10:46:12.771Z,17.01
2023-04-06T10:48:42.212Z,19.48
2023-04-06T10:51:12.044Z,18.41
2023-04-06T10:53:40.491Z,18.64
2023-04-06T10:56:14.023Z,20.00
2023-04-06T10:58:47.690Z,18.06
2023-04-06T11:01:17.422Z,19.73
2023-04-06T11:03:47.274Z,18.85
2023-04-06T11:06:21.653Z,19.32
2023-04-06T11:08:51.250Z,18.99
2023-04-06T11:11:22.456Z,19.80
2023-04-06T11:13:53.615Z,19.13
2023-04-06T11:16:23.545Z,18.15
2023-04-06T11:18:53.750Z,18.44
2023-04-06T11:21:23.166Z,18.88
2023-04-06T11:23:51.390Z,17.75
2023-04-06T11:26:21.507Z,19.63
2023-04-06T11:28:50.171Z,17.02
2023-04-06T11:31:21.167Z,17.91
2023-04-06T11:33:49.480Z,18.16
2023-04-06T11:36:17.802Z,18.30
2023-04-06T11:38:46.065Z,17.06
2023-04-06T11:41:14.616Z,19.04
2023-04-06T11:43:50.039Z,19.61
2023-04-06T11:46:20.669Z,18.63
2023-04-06T11:48:49.179Z,19.55
2023-04-06T11:51:25.104Z,17.80
2023-04-06T11:53:53.403Z,19.69
2023-04-06T11:56:28.912Z,16.06
2023-04-06T11:58:59.710Z,16.81
2023-04-06T12:01:29.090Z,16.34
2023-04-06T12:03:58.060Z,19.87
2023-04-06T12:06:27.278Z,17.75
2023-04-06T12:08:55.897Z,16.59
2023-04-06T12:11:24.336Z,16.34
2023-04-06T12:13:52.642Z,16.22
2023-04-06T12:16:22.302Z,17.64
2023-04-06T12:18:50.741Z,17.57
2023-04-06T12:21:19.132Z,17.54
2023-04-06T12:23:47.463Z,17.74
2023-04-06T12:26:15.966Z,18.21
2023-04-06T12:28:45.814Z,18.10
2023-04-06T12:31:18.209Z,16.93
2023-04-06T12:33:49.779Z,16.59
2023-04-06T12:36:20.147Z,17.27
2023-04-06T12:38:50.217Z,18.30
2023-04-06T12:41:18.980Z,17.72
2023-04-06T12:43:47.447Z,16.29
2023-04-06T12:46:15.836Z,16.51
2023-04-06T12:48:44.118Z,17.67
2023-04-06T12:51:13.966Z,18.65
2023-04-06T12:53:42.431Z,16.20
2023-04-06T12:56:15.775Z,15.48
2023-04-06T12:58:44.132Z,16.88
2023-04-06T13:01:14.123Z,17.13
2023-04-06T13:03:43.154Z,16.56
2023-04-06T13:06:11.727Z,15.84
2023-04-06T13:08:43.062Z,17.07
2023-04-06T13:11:11.815Z,16.71
2023-04-06T13:13:40.257Z,16.50
2023-04-06T13:16:10.658Z,16.66
2023-04-06T13:18:40.202Z,16.28
2023-04-06T13:21:09.220Z,16.08
2023-04-06T13:23:37.529Z,16.30
2023-04-06T13:26:08.773Z,16.00
2023-04-06T13:28:40.131Z,19.07
2023-04-06T13:31:09.334Z,17.10
2023-04-06T13:33:38.141Z,16.10
2023-04-06T13:36:08.509Z,17.19
2023-04-06T13:38:36.984Z,15.48
2023-04-06T13:41:06.700Z,16.18
2023-04-06T13:43:34.822Z,16.29
2023-04-06T13:46:03.053Z,16.46
2023-04-06T13:48:31.725Z,15.91
2023-04-06T13:51:00.201Z,16.51
2023-04-06T13:53:28.441Z,16.52
2023-04-06T13:55:56.856Z,17.08
2023-04-06T13:58:26.946Z,17.27
2023-04-06T14:00:55.306Z,17.07
2023-04-06T14:03:25.408Z,16.59
2023-04-06T14:05:53.998Z,17.40
2023-04-06T14:08:23.003Z,17.53
2023-04-06T14:10:51.284Z,17.46
2023-04-06T14:13:20.206Z,17.59
2023-04-06T14:15:54.590Z,19.36
2023-04-06T14:18:23.324Z,18.66
2023-04-06T14:20:56.945Z,18.68
2023-04-06T14:23:27.029Z,18.91
2023-04-06T14:26:04.621Z,20.33
2023-04-06T14:28:33.589Z,20.47
2023-04-06T14:31:04.198Z,21.26
2023-04-06T14:33:32.604Z,21.70
2023-04-06T14:36:00.762Z,22.06
2023-04-06T14:38:28.974Z,22.29
2023-04-06T14:40:57.289Z,22.75
2023-04-06T14:43:25.987Z,22.66
2023-04-06T14:45:54.370Z,21.87
2023-04-06T14:48:24.081Z,22.59
2023-04-06T14:50:56.048Z,23.34
2023-04-06T14:53:24.223Z,23.66
2023-04-06T14:55:53.670Z,23.33
2023-04-06T14:58:22.820Z,23.66
2023-04-06T15:00:51.292Z,22.62
2023-04-06T15:03:19.602Z,23.42
2023-04-06T15:05:49.569Z,23.79
2023-04-06T15:08:18.329Z,24.19
2023-04-06T15:10:46.590Z,24.08
2023-04-06T15:13:14.918Z,24.84
2023-04-06T15:15:43.262Z,25.03
2023-04-06T15:18:11.518Z,26.24
2023-04-06T15:20:39.929Z,25.52
2023-04-06T15:23:09.637Z,25.18
2023-04-06T15:25:37.830Z,25.37
2023-04-06T15:28:06.083Z,25.98
2023-04-06T15:30:34.464Z,25.15
2023-04-06T15:33:04.720Z,25.97
2023-04-06T15:35:34.701Z,26.50
2023-04-06T15:38:03.300Z,25.07
2023-04-06T15:40:32.914Z,25.98
2023-04-06T15:43:01.121Z,26.02
2023-04-06T15:45:29.364Z,25.40
2023-04-06T15:47:57.745Z,25.09
2023-04-06T15:50:26.069Z,25.84
2023-04-06T15:52:54.293Z,24.98
2023-04-06T15:55:22.490Z,26.02
2023-04-06T15:57:52.898Z,25.65
2023-04-06T16:00:21.825Z,25.39
2023-04-06T16:02:50.355Z,25.94
2023-04-06T16:05:18.783Z,25.72
2023-04-06T16:07:46.911Z,26.44
2023-04-06T16:10:15.156Z,26.50
2023-04-06T16:12:44.036Z,27.41
2023-04-06T16:15:14.103Z,26.34
2023-04-06T16:17:43.729Z,26.97
2023-04-06T16:20:13.054Z,26.41
2023-04-06T16:22:42.093Z,26.86
2023-04-06T16:25:11.556Z,26.59
2023-04-06T16:27:39.704Z,26.96
2023-04-06T16:30:09.182Z,27.41
2023-04-06T16:32:39.129Z,27.48
2023-04-06T16:35:08.250Z,26.72
2023-04-06T16:37:36.366Z,26.84
2023-04-06T16:40:04.994Z,27.66
2023-04-06T16:42:33.191Z,27.49
2023-04-06T16:45:01.441Z,27.74
2023-04-06T16:47:29.689Z,28.93
2023-04-06T16:50:05.829Z,28.34
2023-04-06T16:52:34.861Z,27.96
2023-04-06T16:55:03.114Z,28.73
2023-04-06T16:57:31.326Z,28.67
2023-04-06T16:59:59.807Z,29.35
2023-04-06T17:02:28.113Z,29.04
2023-04-06T17:04:56.290Z,28.98
2023-04-06T17:07:32.347Z,29.98
2023-04-06T17:10:01.747Z,30.27
2023-04-06T17:12:29.910Z,29.32
2023-04-06T17:14:58.946Z,31.06
2023-04-06T17:17:27.159Z,31.11
2023-04-06T17:19:55.314Z,31.13
2023-04-06T17:22:23.529Z,30.08
2023-04-06T17:24:53.333Z,31.31
2023-04-06T17:27:23.585Z,31.33
2023-04-06T17:29:51.914Z,31.46
2023-04-06T17:32:21.993Z,31.41
2023-04-06T17:34:50.230Z,31.24
2023-04-06T17:37:18.419Z,30.90
2023-04-06T17:39:46.844Z,31.10
2023-04-06T17:42:16.458Z,31.74
2023-04-06T17:44:44.799Z,32.02
2023-04-06T17:47:13.084Z,32.55
2023-04-06T17:49:41.360Z,32.85
2023-04-06T17:52:09.850Z,33.51
2023-04-06T17:54:38.294Z,32.69
2023-04-06T17:57:07.888Z,33.29
2023-04-06T17:59:37.624Z,34.15
2023-04-06T18:02:07.286Z,35.14
2023-04-06T18:04:35.629Z,35.32
2023-04-06T18:07:03.797Z,35.91
2023-04-06T18:09:32.323Z,35.95
2023-04-06T18:12:01.397Z,36.38
2023-04-06T18:14:29.694Z,35.88
2023-04-06T18:16:59.541Z,37.13
2023-04-06T18:19:28.981Z,36.85
2023-04-06T18:21:57.202Z,37.40
2023-04-06T18:24:40.613Z,37.51
2023-04-06T18:27:11.052Z,37.86
2023-04-06T18:29:39.306Z,38.62
2023-04-06T18:32:09.067Z,37.54
2023-04-06T18:34:37.358Z,38.49
2023-04-06T18:37:05.995Z,38.03
2023-04-06T18:39:34.333Z,38.75
2023-04-06T18:42:03.119Z,39.92
2023-04-06T18:44:32.437Z,40.24
2023-04-06T18:47:01.246Z,40.05
2023-04-06T18:49:31.307Z,40.83
2023-04-06T18:51:59.616Z,41.19
2023-04-06T18:54:28.241Z,41.67
2023-04-06T18:56:56.998Z,42.06
2023-04-06T18:59:31.857Z,42.25
2023-04-06T19:02:00.526Z,42.65
2023-04-06T19:04:31.261Z,43.43
2023-04-06T19:07:00.975Z,43.50
2023-04-06T19:09:29.562Z,44.08
2023-04-06T19:11:57.942Z,43.01
2023-04-06T19:14:26.433Z,44.39
2023-04-06T19:16:55.088Z,45.58
2023-04-06T19:19:23.747Z,45.26
2023-04-06T19:21:53.677Z,45.49
2023-04-06T19:24:21.884Z,45.25
2023-04-06T19:26:50.186Z,46.36
2023-04-06T19:29:18.603Z,46.09
2023-04-06T19:31:47.164Z,47.65
2023-04-06T19:34:17.885Z,46.98
2023-04-06T19:36:46.643Z,47.03
2023-04-06T19:39:17.042Z,47.74
2023-04-06T19:41:45.526Z,48.28
2023-04-06T19:44:13.748Z,48.44
2023-04-06T19:46:42.737Z,49.59
2023-04-06T19:49:11.049Z,49.12
2023-04-06T19:51:39.493Z,49.97
2023-04-06T19:54:07.971Z,50.81
2023-04-06T19:56:37.558Z,51.10
2023-04-06T19:59:05.943Z,51.70
2023-04-06T20:01:34.239Z,51.65
2023-04-06T20:04:02.558Z,52.28
2023-04-06T20:06:31.294Z,53.21
2023-04-06T20:08:59.453Z,52.91
2023-04-06T20:11:27.741Z,53.21
2023-04-06T20:13:57.409Z,53.17
2023-04-06T20:16:25.685Z,52.81
2023-04-06T20:18:53.771Z,53.23
2023-04-06T20:21:21.878Z,53.95
2023-04-06T20:23:50.054Z,54.70
2023-04-06T20:26:18.187Z,55.07
2023-04-06T20:28:46.466Z,55.67
2023-04-06T20:31:15.864Z,55.98
2023-04-06T20:33:44.033Z,56.25
2023-04-06T20:36:12.751Z,55.94
2023-04-06T20:38:41.007Z,56.23
2023-04-06T20:41:10.336Z,57.02
2023-04-06T20:43:38.546Z,56.75
2023-04-06T20:46:09.321Z,57.24
2023-04-06T20:48:39.114Z,58.04
2023-04-06T20:51:07.256Z,58.52
2023-04-06T20:53:35.783Z,58.21
2023-04-06T20:56:04.240Z,58.67
2023-04-06T20:58:32.515Z,58.97
2023-04-06T21:01:00.593Z,59.51
2023-04-06T21:03:28.954Z,59.92
2023-04-06T21:05:59.982Z,59.29
2023-04-06T21:08:28.193Z,59.44
2023-04-06T21:10:56.418Z,59.69
2023-04-06T21:13:24.705Z,60.14
2023-04-06T21:15:52.970Z,60.68
2023-04-06T21:18:22.227Z,60.55
2023-04-06T21:20:50.743Z,61.07
2023-04-06T21:23:20.446Z,61.98
2023-04-06T21:25:50.246Z,62.45
2023-04-06T21:28:18.465Z,63.04
2023-04-06T21:30:46.560Z,63.31
2023-04-06T21:33:14.805Z,63.72
2023-04-06T21:35:43.207Z,63.87
2023-04-06T21:38:11.628Z,63.35
2023-04-06T21:40:41.548Z,64.33
2023-04-06T21:43:09.762Z,64.18
2023-04-06T21:45:38.106Z,64.65
2023-04-06T21:48:07.116Z,64.69
2023-04-06T21:50:39.943Z,64.25
2023-04-06T21:53:08.075Z,65.05
2023-04-06T21:55:36.290Z,65.92
2023-04-06T21:58:07.422Z,64.69
2023-04-06T22:00:35.650Z,64.37
2023-04-06T22:03:03.929Z,64.36
2023-04-06T22:05:32.393Z,64.51
2023-04-06T22:08:02.144Z,64.69
2023-04-06T22:10:30.898Z,65.20
2023-04-06T22:12:59.031Z,64.83
2023-04-06T22:15:28.572Z,64.76
2023-04-06T22:17:56.862Z,65.10
2023-04-06T22:20:25.018Z,65.73
2023-04-06T22:22:53.184Z,65.97
2023-04-06T22:25:21.416Z,66.35
2023-04-06T22:27:50.931Z,66.22
2023-04-06T22:30:19.179Z,66.68
2023-04-06T22:32:48.723Z,67.55
2023-04-06T22:35:17.109Z,66.92
2023-04-06T22:37:45.544Z,67.18
2023-04-06T22:40:14.277Z,66.55
2023-04-06T22:42:42.544Z,67.81
2023-04-06T22:45:11.379Z,66.92
2023-04-06T22:47:41.725Z,66.30
2023-04-06T22:50:12.228Z,66.47
2023-04-06T22:52:40.396Z,67.78
2023-04-06T22:55:09.042Z,67.67
2023-04-06T22:57:37.117Z,68.60
2023-04-06T23:00:06.484Z,68.98
2023-04-06T23:02:34.897Z,69.27
2023-04-06T23:05:03.209Z,68.61
2023-04-06T23:07:33.367Z,68.68
2023-04-06T23:10:01.637Z,68.32
2023-04-06T23:12:29.820Z,70.08
2023-04-06T23:14:57.963Z,68.12
2023-04-06T23:17:26.211Z,70.46
2023-04-06T23:19:54.728Z,70.67
2023-04-06T23:22:22.972Z,70.67
2023-04-06T23:24:52.436Z,71.14
2023-04-06T23:27:20.582Z,71.59
2023-04-06T23:29:48.826Z,70.97
2023-04-06T23:32:17.561Z,71.44
2023-04-06T23:34:45.754Z,71.67
2023-04-06T23:37:13.873Z,71.85
2023-04-06T23:39:42.905Z,71.91
2023-04-06T23:42:12.390Z,70.75
2023-04-06T23:44:40.562Z,71.92
2023-04-06T23:47:08.751Z,71.35
2023-04-06T23:49:36.856Z,72.38
2023-04-06T23:52:05.075Z,72.80
2023-04-06T23:54:33.163Z,73.38
2023-04-06T23:57:01.436Z,73.08
2023-04-06T23:59:30.844Z,72.79
